sensor_id;sensor_type;location;lat;lon;timestamp;pressure;altitude;pressure_sealevel;temperature;humidity
12799;BME280;19250;42.646;26.980;2023-03-13T00:01:58;99323.88;;;7.31;100.00
12799;BME280;19250;42.646;26.980;2023-03-13T00:04:27;99326.97;;;7.36;100.00
12799;BME280;19250;42.646;26.980;2023-03-13T00:06:54;99323.09;;;7.49;100.00
12799;BME280;19250;42.646;26.980;2023-03-13T00:09:21;99311.16;;;6.61;100.00
12799;BME280;19250;42.646;26.980;2023-03-13T00:11:49;99318.75;;;6.12;100.00
12799;BME280;19250;42.646;26.980;2023-03-13T00:14:16;99320.88;;;6.40;100.00
12799;BME280;19250;42.646;26.980;2023-03-13T00:16:44;99319.94;;;6.73;100.00
12799;BME280;19250;42.646;26.980;2023-03-13T00:19:11;99305.97;;;6.28;100.00
12799;BME280;19250;42.646;26.980;2023-03-13T00:21:41;99306.53;;;6.42;100.00
12799;BME280;19250;42.646;26.980;2023-03-13T00:24:09;99319.84;;;6.63;100.00
12799;BME280;19250;42.646;26.980;2023-03-13T00:26:37;99317.56;;;6.16;100.00
12799;BME280;19250;42.646;26.980;2023-03-13T00:29:04;99320.22;;;6.58;100.00
12799;BME280;19250;42.646;26.980;2023-03-13T00:31:31;99323.56;;;6.72;100.00
12799;BME280;19250;42.646;26.980;2023-03-13T00:34:00;99316.47;;;6.93;100.00
12799;BME280;19250;42.646;26.980;2023-03-13T00:36:28;99323.13;;;7.08;100.00
12799;BME280;19250;42.646;26.980;2023-03-13T00:38:58;99319.63;;;6.87;100.00
12799;BME280;19250;42.646;26.980;2023-03-13T00:41:26;99317.28;;;6.73;100.00
12799;BME280;19250;42.646;26.980;2023-03-13T00:43:54;99321.25;;;6.99;100.00
12799;BME280;19250;42.646;26.980;2023-03-13T00:46:23;99321.44;;;7.07;100.00
12799;BME280;19250;42.646;26.980;2023-03-13T00:48:51;99316.13;;;6.86;100.00
12799;BME280;19250;42.646;26.980;2023-03-13T00:51:19;99294.94;;;6.54;100.00
12799;BME280;19250;42.646;26.980;2023-03-13T00:53:47;99325.66;;;6.46;100.00
12799;BME280;19250;42.646;26.980;2023-03-13T00:56:17;99323.56;;;6.29;100.00
12799;BME280;19250;42.646;26.980;2023-03-13T00:58:46;99323.72;;;6.59;100.00
12799;BME280;19250;42.646;26.980;2023-03-13T01:01:15;99333.09;;;5.98;100.00
12799;BME280;19250;42.646;26.980;2023-03-13T01:03:44;99329.84;;;5.50;100.00
12799;BME280;19250;42.646;26.980;2023-03-13T01:06:14;99321.56;;;5.88;100.00
12799;BME280;19250;42.646;26.980;2023-03-13T01:08:42;99323.72;;;6.59;100.00
12799;BME280;19250;42.646;26.980;2023-03-13T01:11:11;99324.06;;;6.66;100.00
12799;BME280;19250;42.646;26.980;2023-03-13T01:13:41;99324.78;;;6.88;100.00
12799;BME280;19250;42.646;26.980;2023-03-13T01:16:10;99335.78;;;6.84;100.00
12799;BME280;19250;42.646;26.980;2023-03-13T01:18:40;99328.28;;;6.89;100.00
12799;BME280;19250;42.646;26.980;2023-03-13T01:21:07;99335.94;;;7.03;100.00
12799;BME280;19250;42.646;26.980;2023-03-13T01:23:35;99332.44;;;6.39;100.00
12799;BME280;19250;42.646;26.980;2023-03-13T01:26:03;99332.97;;;6.65;100.00
12799;BME280;19250;42.646;26.980;2023-03-13T01:28:31;99333.81;;;6.65;100.00
12799;BME280;19250;42.646;26.980;2023-03-13T01:31:01;99325.94;;;6.75;100.00
12799;BME280;19250;42.646;26.980;2023-03-13T01:33:36;99333.38;;;6.49;100.00
12799;BME280;19250;42.646;26.980;2023-03-13T01:36:04;99333.31;;;6.71;100.00
12799;BME280;19250;42.646;26.980;2023-03-13T01:38:31;99338.00;;;6.68;100.00
12799;BME280;19250;42.646;26.980;2023-03-13T01:40:58;99337.81;;;6.60;100.00
12799;BME280;19250;42.646;26.980;2023-03-13T01:43:27;99343.31;;;6.68;100.00
12799;BME280;19250;42.646;26.980;2023-03-13T01:46:12;99343.53;;;6.76;100.00
12799;BME280;19250;42.646;26.980;2023-03-13T01:48:44;99357.75;;;6.32;100.00
12799;BME280;19250;42.646;26.980;2023-03-13T01:51:17;99346.28;;;6.31;100.00
12799;BME280;19250;42.646;26.980;2023-03-13T01:53:49;99351.47;;;6.22;100.00
12799;BME280;19250;42.646;26.980;2023-03-13T01:56:21;99361.28;;;5.99;100.00
12799;BME280;19250;42.646;26.980;2023-03-13T01:58:52;99357.69;;;5.32;100.00
12799;BME280;19250;42.646;26.980;2023-03-13T02:01:24;99361.50;;;5.28;100.00
12799;BME280;19250;42.646;26.980;2023-03-13T02:03:53;99373.19;;;5.47;100.00
12799;BME280;19250;42.646;26.980;2023-03-13T02:06:22;99372.94;;;5.39;100.00
12799;BME280;19250;42.646;26.980;2023-03-13T02:08:52;99377.31;;;5.63;100.00
12799;BME280;19250;42.646;26.980;2023-03-13T02:11:30;99351.38;;;5.68;100.00
12799;BME280;19250;42.646;26.980;2023-03-13T02:14:01;99373.03;;;6.06;100.00
12799;BME280;19250;42.646;26.980;2023-03-13T02:16:31;99381.69;;;6.19;100.00
12799;BME280;19250;42.646;26.980;2023-03-13T02:18:59;99391.91;;;6.35;100.00
12799;BME280;19250;42.646;26.980;2023-03-13T02:21:38;99394.22;;;6.06;100.00
12799;BME280;19250;42.646;26.980;2023-03-13T02:24:12;99393.50;;;6.04;100.00
12799;BME280;19250;42.646;26.980;2023-03-13T02:26:45;99400.56;;;6.15;100.00
12799;BME280;19250;42.646;26.980;2023-03-13T02:29:12;99406.25;;;6.10;100.00
12799;BME280;19250;42.646;26.980;2023-03-13T02:31:45;99411.53;;;6.21;100.00
12799;BME280;19250;42.646;26.980;2023-03-13T02:34:14;99416.94;;;6.31;100.00
12799;BME280;19250;42.646;26.980;2023-03-13T02:36:43;99412.38;;;6.33;100.00
12799;BME280;19250;42.646;26.980;2023-03-13T02:39:13;99422.84;;;6.01;100.00
12799;BME280;19250;42.646;26.980;2023-03-13T02:41:45;99428.56;;;5.27;100.00
12799;BME280;19250;42.646;26.980;2023-03-13T02:44:13;99426.22;;;4.64;100.00
12799;BME280;19250;42.646;26.980;2023-03-13T02:46:45;99432.44;;;4.63;100.00
12799;BME280;19250;42.646;26.980;2023-03-13T02:49:21;99435.50;;;5.17;100.00
12799;BME280;19250;42.646;26.980;2023-03-13T02:51:50;99435.66;;;4.79;100.00
12799;BME280;19250;42.646;26.980;2023-03-13T02:54:21;99442.28;;;5.32;100.00
12799;BME280;19250;42.646;26.980;2023-03-13T02:56:55;99447.78;;;5.64;100.00
12799;BME280;19250;42.646;26.980;2023-03-13T02:59:24;99442.44;;;5.87;100.00
12799;BME280;19250;42.646;26.980;2023-03-13T03:01:51;99451.25;;;5.53;100.00
12799;BME280;19250;42.646;26.980;2023-03-13T03:04:19;99454.22;;;5.48;100.00
12799;BME280;19250;42.646;26.980;2023-03-13T03:06:47;99444.66;;;5.59;100.00
12799;BME280;19250;42.646;26.980;2023-03-13T03:09:17;99453.22;;;5.38;100.00
12799;BME280;19250;42.646;26.980;2023-03-13T03:11:44;99457.56;;;5.39;100.00
12799;BME280;19250;42.646;26.980;2023-03-13T03:14:13;99454.84;;;5.52;100.00
12799;BME280;19250;42.646;26.980;2023-03-13T03:16:41;99462.31;;;5.58;100.00
12799;BME280;19250;42.646;26.980;2023-03-13T03:19:08;99456.88;;;5.60;100.00
12799;BME280;19250;42.646;26.980;2023-03-13T03:21:36;99429.41;;;5.27;100.00
12799;BME280;19250;42.646;26.980;2023-03-13T03:24:04;99465.28;;;5.54;100.00
12799;BME280;19250;42.646;26.980;2023-03-13T03:26:32;99468.06;;;5.52;100.00
12799;BME280;19250;42.646;26.980;2023-03-13T03:28:59;99468.91;;;5.53;100.00
12799;BME280;19250;42.646;26.980;2023-03-13T03:31:29;99469.84;;;5.40;100.00
12799;BME280;19250;42.646;26.980;2023-03-13T03:33:57;99477.00;;;5.38;100.00
12799;BME280;19250;42.646;26.980;2023-03-13T03:36:24;99481.84;;;5.44;100.00
12799;BME280;19250;42.646;26.980;2023-03-13T03:38:51;99480.50;;;5.39;100.00
12799;BME280;19250;42.646;26.980;2023-03-13T03:41:19;99479.72;;;5.49;100.00
12799;BME280;19250;42.646;26.980;2023-03-13T03:43:47;99478.28;;;5.57;100.00
12799;BME280;19250;42.646;26.980;2023-03-13T03:46:14;99483.31;;;5.48;100.00
12799;BME280;19250;42.646;26.980;2023-03-13T03:48:43;99485.47;;;5.43;100.00
12799;BME280;19250;42.646;26.980;2023-03-13T03:51:12;99495.53;;;5.38;100.00
12799;BME280;19250;42.646;26.980;2023-03-13T03:53:39;99488.84;;;5.45;100.00
12799;BME280;19250;42.646;26.980;2023-03-13T03:56:07;99490.53;;;5.46;100.00
12799;BME280;19250;42.646;26.980;2023-03-13T03:58:34;99496.28;;;5.40;100.00
12799;BME280;19250;42.646;26.980;2023-03-13T04:01:01;99494.84;;;5.47;100.00
12799;BME280;19250;42.646;26.980;2023-03-13T04:03:28;99493.03;;;5.48;100.00
12799;BME280;19250;42.646;26.980;2023-03-13T04:05:57;99495.34;;;5.53;100.00
12799;BME280;19250;42.646;26.980;2023-03-13T04:08:24;99491.50;;;5.57;100.00
12799;BME280;19250;42.646;26.980;2023-03-13T04:10:52;99492.63;;;5.07;100.00
12799;BME280;19250;42.646;26.980;2023-03-13T04:13:19;99501.06;;;5.12;100.00
12799;BME280;19250;42.646;26.980;2023-03-13T04:15:46;99514.16;;;5.13;100.00
12799;BME280;19250;42.646;26.980;2023-03-13T04:18:14;99504.31;;;5.15;100.00
12799;BME280;19250;42.646;26.980;2023-03-13T04:20:42;99510.50;;;5.27;100.00
12799;BME280;19250;42.646;26.980;2023-03-13T04:23:10;99506.97;;;5.15;100.00
12799;BME280;19250;42.646;26.980;2023-03-13T04:25:37;99512.75;;;4.97;100.00
12799;BME280;19250;42.646;26.980;2023-03-13T04:28:05;99519.00;;;5.19;100.00
12799;BME280;19250;42.646;26.980;2023-03-13T04:30:32;99518.66;;;5.00;100.00
12799;BME280;19250;42.646;26.980;2023-03-13T04:32:59;99526.81;;;4.23;100.00
12799;BME280;19250;42.646;26.980;2023-03-13T04:35:26;99533.44;;;4.66;100.00
12799;BME280;19250;42.646;26.980;2023-03-13T04:37:54;99535.88;;;4.93;100.00
12799;BME280;19250;42.646;26.980;2023-03-13T04:40:22;99537.47;;;4.95;100.00
12799;BME280;19250;42.646;26.980;2023-03-13T04:42:49;99538.47;;;5.18;100.00
12799;BME280;19250;42.646;26.980;2023-03-13T04:45:17;99538.84;;;5.25;100.00
12799;BME280;19250;42.646;26.980;2023-03-13T04:47:45;99537.16;;;5.24;100.00
12799;BME280;19250;42.646;26.980;2023-03-13T04:50:12;99536.81;;;5.05;100.00
12799;BME280;19250;42.646;26.980;2023-03-13T04:52:39;99538.22;;;5.21;100.00
12799;BME280;19250;42.646;26.980;2023-03-13T04:55:07;99548.19;;;5.18;100.00
12799;BME280;19250;42.646;26.980;2023-03-13T04:57:36;99544.63;;;5.06;100.00
12799;BME280;19250;42.646;26.980;2023-03-13T05:00:04;99546.84;;;5.12;100.00
12799;BME280;19250;42.646;26.980;2023-03-13T05:02:32;99549.00;;;5.66;100.00
12799;BME280;19250;42.646;26.980;2023-03-13T05:05:00;99554.19;;;5.91;100.00
12799;BME280;19250;42.646;26.980;2023-03-13T05:07:27;99553.25;;;5.92;100.00
12799;BME280;19250;42.646;26.980;2023-03-13T05:09:54;99553.31;;;6.36;100.00
12799;BME280;19250;42.646;26.980;2023-03-13T05:12:21;99569.00;;;6.62;99.70
12799;BME280;19250;42.646;26.980;2023-03-13T05:14:50;99568.53;;;6.68;97.20
12799;BME280;19250;42.646;26.980;2023-03-13T05:17:18;99573.97;;;5.74;100.00
12799;BME280;19250;42.646;26.980;2023-03-13T05:19:45;99583.53;;;6.34;100.00
12799;BME280;19250;42.646;26.980;2023-03-13T05:22:12;99577.19;;;6.92;100.00
12799;BME280;19250;42.646;26.980;2023-03-13T05:24:39;99585.81;;;7.38;99.64
12799;BME280;19250;42.646;26.980;2023-03-13T05:27:07;99587.66;;;7.58;97.20
12799;BME280;19250;42.646;26.980;2023-03-13T05:29:34;99587.78;;;8.00;93.67
12799;BME280;19250;42.646;26.980;2023-03-13T05:32:03;99599.31;;;8.10;89.64
12799;BME280;19250;42.646;26.980;2023-03-13T05:34:30;99600.72;;;8.14;88.51
12799;BME280;19250;42.646;26.980;2023-03-13T05:36:57;99604.53;;;7.80;92.98
12799;BME280;19250;42.646;26.980;2023-03-13T05:39:24;99610.25;;;8.16;91.42
12799;BME280;19250;42.646;26.980;2023-03-13T05:41:51;99608.88;;;8.84;83.69
12799;BME280;19250;42.646;26.980;2023-03-13T05:44:19;99607.94;;;9.25;78.65
12799;BME280;19250;42.646;26.980;2023-03-13T05:46:46;99608.84;;;9.54;74.11
12799;BME280;19250;42.646;26.980;2023-03-13T05:49:14;99605.38;;;9.82;69.48
12799;BME280;19250;42.646;26.980;2023-03-13T05:51:42;99616.19;;;10.00;67.29
12799;BME280;19250;42.646;26.980;2023-03-13T05:54:09;99614.53;;;9.99;67.35
12799;BME280;19250;42.646;26.980;2023-03-13T05:56:36;99611.28;;;10.05;68.04
12799;BME280;19250;42.646;26.980;2023-03-13T05:59:03;99612.00;;;10.36;64.76
12799;BME280;19250;42.646;26.980;2023-03-13T06:01:30;99620.69;;;10.57;63.91
12799;BME280;19250;42.646;26.980;2023-03-13T06:03:58;99626.88;;;10.48;64.08
12799;BME280;19250;42.646;26.980;2023-03-13T06:06:26;99629.31;;;10.88;60.93
12799;BME280;19250;42.646;26.980;2023-03-13T06:08:53;99623.19;;;11.05;59.14
12799;BME280;19250;42.646;26.980;2023-03-13T06:11:21;99628.09;;;11.10;57.61
12799;BME280;19250;42.646;26.980;2023-03-13T06:13:50;99625.75;;;11.61;54.45
12799;BME280;19250;42.646;26.980;2023-03-13T06:16:17;99626.94;;;11.76;52.34
12799;BME280;19250;42.646;26.980;2023-03-13T06:18:44;99635.63;;;11.78;51.75
12799;BME280;19250;42.646;26.980;2023-03-13T06:21:12;99637.03;;;11.82;51.72
12799;BME280;19250;42.646;26.980;2023-03-13T06:23:41;99631.75;;;11.90;51.31
12799;BME280;19250;42.646;26.980;2023-03-13T06:26:08;99628.16;;;11.55;51.60
12799;BME280;19250;42.646;26.980;2023-03-13T06:28:36;99632.88;;;11.43;53.09
12799;BME280;19250;42.646;26.980;2023-03-13T06:31:04;99643.66;;;11.78;51.38
12799;BME280;19250;42.646;26.980;2023-03-13T06:33:32;99637.63;;;11.76;50.91
12799;BME280;19250;42.646;26.980;2023-03-13T06:36:01;99637.47;;;10.67;53.44
12799;BME280;19250;42.646;26.980;2023-03-13T06:38:29;99638.00;;;11.27;53.31
12799;BME280;19250;42.646;26.980;2023-03-13T06:40:57;99631.31;;;11.68;50.51
12799;BME280;19250;42.646;26.980;2023-03-13T06:43:25;99633.97;;;12.13;49.10
12799;BME280;19250;42.646;26.980;2023-03-13T06:45:52;99607.22;;;11.77;48.57
12799;BME280;19250;42.646;26.980;2023-03-13T06:48:19;99632.72;;;11.72;49.01
12799;BME280;19250;42.646;26.980;2023-03-13T06:50:48;99637.69;;;11.84;48.97
12799;BME280;19250;42.646;26.980;2023-03-13T06:53:16;99631.47;;;12.29;46.83
12799;BME280;19250;42.646;26.980;2023-03-13T06:55:44;99628.56;;;12.22;46.84
12799;BME280;19250;42.646;26.980;2023-03-13T06:58:13;99635.53;;;12.84;45.57
12799;BME280;19250;42.646;26.980;2023-03-13T07:00:40;99633.47;;;12.96;45.06
12799;BME280;19250;42.646;26.980;2023-03-13T07:03:08;99637.78;;;13.15;44.33
12799;BME280;19250;42.646;26.980;2023-03-13T07:05:36;99638.59;;;13.15;43.29
12799;BME280;19250;42.646;26.980;2023-03-13T07:08:04;99649.94;;;12.83;43.83
12799;BME280;19250;42.646;26.980;2023-03-13T07:10:31;99648.97;;;13.10;42.94
12799;BME280;19250;42.646;26.980;2023-03-13T07:12:58;99660.38;;;14.04;41.51
12799;BME280;19250;42.646;26.980;2023-03-13T07:15:27;99656.56;;;14.23;40.51
12799;BME280;19250;42.646;26.980;2023-03-13T07:17:56;99659.56;;;14.03;40.98
12799;BME280;19250;42.646;26.980;2023-03-13T07:20:23;99656.84;;;13.95;40.93
12799;BME280;19250;42.646;26.980;2023-03-13T07:22:51;99626.56;;;13.53;41.05
12799;BME280;19250;42.646;26.980;2023-03-13T07:25:19;99653.59;;;14.34;39.81
12799;BME280;19250;42.646;26.980;2023-03-13T07:27:49;99653.50;;;13.93;40.18
12799;BME280;19250;42.646;26.980;2023-03-13T07:30:17;99658.97;;;14.58;38.65
12799;BME280;19250;42.646;26.980;2023-03-13T07:32:46;99661.75;;;15.05;37.80
12799;BME280;19250;42.646;26.980;2023-03-13T07:35:13;99655.25;;;14.83;37.68
12799;BME280;19250;42.646;26.980;2023-03-13T07:37:41;99650.06;;;14.57;38.24
12799;BME280;19250;42.646;26.980;2023-03-13T07:40:09;99643.81;;;15.05;37.16
12799;BME280;19250;42.646;26.980;2023-03-13T07:42:39;99641.66;;;14.85;37.10
12799;BME280;19250;42.646;26.980;2023-03-13T07:45:07;99644.75;;;15.29;36.66
12799;BME280;19250;42.646;26.980;2023-03-13T07:47:34;99639.97;;;15.55;36.66
12799;BME280;19250;42.646;26.980;2023-03-13T07:50:04;99643.69;;;16.15;35.37
12799;BME280;19250;42.646;26.980;2023-03-13T07:52:31;99646.50;;;14.97;36.49
12799;BME280;19250;42.646;26.980;2023-03-13T07:54:58;99645.03;;;14.79;36.66
12799;BME280;19250;42.646;26.980;2023-03-13T07:57:25;99645.81;;;14.06;35.75
12799;BME280;19250;42.646;26.980;2023-03-13T07:59:53;99643.75;;;13.92;33.73
12799;BME280;19250;42.646;26.980;2023-03-13T08:02:20;99644.31;;;14.28;32.22
12799;BME280;19250;42.646;26.980;2023-03-13T08:04:51;99616.41;;;12.71;35.21
12799;BME280;19250;42.646;26.980;2023-03-13T08:07:20;99643.88;;;13.67;34.12
12799;BME280;19250;42.646;26.980;2023-03-13T08:09:47;99642.28;;;14.22;33.70
12799;BME280;19250;42.646;26.980;2023-03-13T08:12:14;99642.47;;;14.29;32.32
12799;BME280;19250;42.646;26.980;2023-03-13T08:14:41;99635.44;;;13.45;30.82
12799;BME280;19250;42.646;26.980;2023-03-13T08:17:08;99638.09;;;13.12;29.39
12799;BME280;19250;42.646;26.980;2023-03-13T08:19:36;99637.59;;;13.42;29.39
12799;BME280;19250;42.646;26.980;2023-03-13T08:22:03;99634.63;;;13.61;29.58
12799;BME280;19250;42.646;26.980;2023-03-13T08:24:32;99609.75;;;13.85;28.86
12799;BME280;19250;42.646;26.980;2023-03-13T08:27:00;99637.03;;;13.72;29.56
12799;BME280;19250;42.646;26.980;2023-03-13T08:29:27;99634.50;;;13.29;29.70
12799;BME280;19250;42.646;26.980;2023-03-13T08:31:55;99634.81;;;13.68;30.81
12799;BME280;19250;42.646;26.980;2023-03-13T08:34:23;99629.03;;;14.04;31.35
12799;BME280;19250;42.646;26.980;2023-03-13T08:36:50;99635.56;;;14.10;28.89
12799;BME280;19250;42.646;26.980;2023-03-13T08:39:19;99636.72;;;13.07;29.52
12799;BME280;19250;42.646;26.980;2023-03-13T08:41:49;99599.47;;;13.14;30.03
12799;BME280;19250;42.646;26.980;2023-03-13T08:44:17;99629.78;;;13.64;30.73
12799;BME280;19250;42.646;26.980;2023-03-13T08:46:46;99636.22;;;13.88;31.04
12799;BME280;19250;42.646;26.980;2023-03-13T08:49:15;99628.78;;;14.48;30.53
12799;BME280;19250;42.646;26.980;2023-03-13T08:51:44;99619.00;;;14.87;29.02
12799;BME280;19250;42.646;26.980;2023-03-13T08:54:12;99628.72;;;14.96;28.46
12799;BME280;19250;42.646;26.980;2023-03-13T08:56:39;99621.03;;;15.79;27.93
12799;BME280;19250;42.646;26.980;2023-03-13T08:59:09;99627.84;;;16.20;27.42
12799;BME280;19250;42.646;26.980;2023-03-13T09:01:37;99629.03;;;16.41;27.13
12799;BME280;19250;42.646;26.980;2023-03-13T09:04:05;99632.69;;;16.48;27.03
12799;BME280;19250;42.646;26.980;2023-03-13T09:06:32;99631.31;;;16.89;27.62
12799;BME280;19250;42.646;26.980;2023-03-13T09:08:59;99623.06;;;16.08;28.10
12799;BME280;19250;42.646;26.980;2023-03-13T09:11:27;99632.47;;;17.38;27.00
12799;BME280;19250;42.646;26.980;2023-03-13T09:13:55;99617.25;;;18.17;26.27
12799;BME280;19250;42.646;26.980;2023-03-13T09:16:26;99621.78;;;18.31;25.93
12799;BME280;19250;42.646;26.980;2023-03-13T09:18:55;99632.81;;;18.15;25.96
12799;BME280;19250;42.646;26.980;2023-03-13T09:21:24;99626.16;;;17.61;24.07
12799;BME280;19250;42.646;26.980;2023-03-13T09:23:52;99618.81;;;17.11;24.97
12799;BME280;19250;42.646;26.980;2023-03-13T09:26:20;99618.75;;;15.68;25.24
12799;BME280;19250;42.646;26.980;2023-03-13T09:28:47;99623.78;;;15.71;25.12
12799;BME280;19250;42.646;26.980;2023-03-13T09:31:16;99618.69;;;16.29;25.25
12799;BME280;19250;42.646;26.980;2023-03-13T09:33:46;99616.09;;;15.91;26.10
12799;BME280;19250;42.646;26.980;2023-03-13T09:36:14;99591.72;;;15.92;26.19
12799;BME280;19250;42.646;26.980;2023-03-13T09:38:41;99611.34;;;16.83;25.52
12799;BME280;19250;42.646;26.980;2023-03-13T09:41:20;99613.44;;;16.59;25.88
12799;BME280;19250;42.646;26.980;2023-03-13T09:43:51;99617.63;;;16.39;26.03
12799;BME280;19250;42.646;26.980;2023-03-13T09:46:23;99613.03;;;16.84;25.70
12799;BME280;19250;42.646;26.980;2023-03-13T09:48:56;99609.41;;;15.56;27.12
12799;BME280;19250;42.646;26.980;2023-03-13T09:51:27;99608.38;;;16.33;26.97
12799;BME280;19250;42.646;26.980;2023-03-13T09:53:57;99606.72;;;16.32;27.25
12799;BME280;19250;42.646;26.980;2023-03-13T09:56:30;99601.09;;;16.19;27.65
12799;BME280;19250;42.646;26.980;2023-03-13T09:59:05;99619.13;;;15.88;27.81
12799;BME280;19250;42.646;26.980;2023-03-13T10:01:37;99605.75;;;15.79;27.45
12799;BME280;19250;42.646;26.980;2023-03-13T10:04:18;99593.47;;;15.46;26.55
12799;BME280;19250;42.646;26.980;2023-03-13T10:06:48;99553.28;;;16.06;26.01
12799;BME280;19250;42.646;26.980;2023-03-13T10:09:18;99576.13;;;15.57;26.19
12799;BME280;19250;42.646;26.980;2023-03-13T10:11:50;99590.94;;;16.29;25.40
12799;BME280;19250;42.646;26.980;2023-03-13T10:14:22;99586.88;;;15.57;25.56
12799;BME280;19250;42.646;26.980;2023-03-13T10:16:56;99595.91;;;15.64;25.24
12799;BME280;19250;42.646;26.980;2023-03-13T10:19:31;99591.16;;;18.24;23.21
12799;BME280;19250;42.646;26.980;2023-03-13T10:22:07;99581.88;;;17.70;23.20
12799;BME280;19250;42.646;26.980;2023-03-13T10:24:41;99595.47;;;17.18;23.40
12799;BME280;19250;42.646;26.980;2023-03-13T10:27:13;99581.38;;;16.26;23.51
12799;BME280;19250;42.646;26.980;2023-03-13T10:29:41;99591.53;;;15.94;23.57
12799;BME280;19250;42.646;26.980;2023-03-13T10:32:12;99591.78;;;16.07;23.39
12799;BME280;19250;42.646;26.980;2023-03-13T10:34:52;99588.31;;;16.81;23.13
12799;BME280;19250;42.646;26.980;2023-03-13T10:37:22;99577.78;;;17.45;22.06
12799;BME280;19250;42.646;26.980;2023-03-13T10:39:50;99581.22;;;17.53;22.02
12799;BME280;19250;42.646;26.980;2023-03-13T10:42:22;99575.50;;;16.98;22.76
12799;BME280;19250;42.646;26.980;2023-03-13T10:44:55;99581.06;;;16.81;22.96
12799;BME280;19250;42.646;26.980;2023-03-13T10:47:24;99569.25;;;16.68;22.94
12799;BME280;19250;42.646;26.980;2023-03-13T10:49:55;99575.38;;;16.91;23.88
12799;BME280;19250;42.646;26.980;2023-03-13T10:52:32;99577.50;;;16.06;28.65
12799;BME280;19250;42.646;26.980;2023-03-13T10:55:02;99556.72;;;16.15;29.19
12799;BME280;19250;42.646;26.980;2023-03-13T10:57:31;99566.25;;;16.25;23.73
12799;BME280;19250;42.646;26.980;2023-03-13T10:59:59;99553.19;;;17.33;22.56
12799;BME280;19250;42.646;26.980;2023-03-13T11:02:33;99559.56;;;16.59;28.29
12799;BME280;19250;42.646;26.980;2023-03-13T11:05:30;99542.28;;;15.70;29.30
12799;BME280;19250;42.646;26.980;2023-03-13T11:08:10;99527.56;;;17.08;28.59
12799;BME280;19250;42.646;26.980;2023-03-13T11:10:50;99531.41;;;15.64;30.00
12799;BME280;19250;42.646;26.980;2023-03-13T11:13:27;99508.47;;;15.45;29.58
12799;BME280;19250;42.646;26.980;2023-03-13T11:15:57;99527.38;;;15.60;28.55
12799;BME280;19250;42.646;26.980;2023-03-13T11:18:31;99528.56;;;16.25;29.71
12799;BME280;19250;42.646;26.980;2023-03-13T11:21:04;99522.06;;;16.20;30.47
12799;BME280;19250;42.646;26.980;2023-03-13T11:23:36;99527.13;;;15.39;30.59
12799;BME280;19250;42.646;26.980;2023-03-13T11:26:10;99527.00;;;15.01;32.28
12799;BME280;19250;42.646;26.980;2023-03-13T11:28:51;99474.22;;;15.39;31.86
12799;BME280;19250;42.646;26.980;2023-03-13T11:31:24;99522.47;;;16.31;31.04
12799;BME280;19250;42.646;26.980;2023-03-13T11:34:01;99505.91;;;16.20;30.41
12799;BME280;19250;42.646;26.980;2023-03-13T11:36:35;99515.50;;;15.54;31.08
12799;BME280;19250;42.646;26.980;2023-03-13T11:39:29;99519.13;;;15.31;31.77
12799;BME280;19250;42.646;26.980;2023-03-13T11:42:07;99517.38;;;15.46;32.66
12799;BME280;19250;42.646;26.980;2023-03-13T11:44:47;99510.91;;;14.93;33.37
12799;BME280;19250;42.646;26.980;2023-03-13T11:47:38;99515.28;;;15.87;32.64
12799;BME280;19250;42.646;26.980;2023-03-13T11:50:19;99508.97;;;16.54;31.99
12799;BME280;19250;42.646;26.980;2023-03-13T11:53:00;99495.78;;;16.74;32.27
12799;BME280;19250;42.646;26.980;2023-03-13T11:55:37;99486.03;;;17.38;30.94
12799;BME280;19250;42.646;26.980;2023-03-13T11:58:25;99495.75;;;16.45;32.61
12799;BME280;19250;42.646;26.980;2023-03-13T12:00:58;99483.53;;;15.82;33.62
12799;BME280;19250;42.646;26.980;2023-03-13T12:03:33;99453.38;;;15.49;33.47
12799;BME280;19250;42.646;26.980;2023-03-13T12:06:04;99486.81;;;15.39;33.71
12799;BME280;19250;42.646;26.980;2023-03-13T12:08:37;99483.53;;;15.82;33.40
12799;BME280;19250;42.646;26.980;2023-03-13T12:11:09;99488.06;;;16.42;33.07
12799;BME280;19250;42.646;26.980;2023-03-13T12:13:42;99484.91;;;16.82;32.88
12799;BME280;19250;42.646;26.980;2023-03-13T12:16:15;99482.50;;;16.87;32.77
12799;BME280;19250;42.646;26.980;2023-03-13T12:18:45;99444.63;;;16.59;32.22
12799;BME280;19250;42.646;26.980;2023-03-13T12:21:18;99477.00;;;17.10;32.22
12799;BME280;19250;42.646;26.980;2023-03-13T12:23:56;99479.59;;;15.93;34.12
12799;BME280;19250;42.646;26.980;2023-03-13T12:26:32;99479.56;;;16.30;33.93
12799;BME280;19250;42.646;26.980;2023-03-13T12:29:06;99475.13;;;16.52;32.56
12799;BME280;19250;42.646;26.980;2023-03-13T12:31:41;99440.16;;;16.00;33.64
12799;BME280;19250;42.646;26.980;2023-03-13T12:34:15;99462.66;;;16.59;32.54
12799;BME280;19250;42.646;26.980;2023-03-13T12:36:48;99476.91;;;16.45;33.06
12799;BME280;19250;42.646;26.980;2023-03-13T12:39:30;99478.72;;;15.47;34.22
12799;BME280;19250;42.646;26.980;2023-03-13T12:42:22;99479.84;;;15.60;32.88
12799;BME280;19250;42.646;26.980;2023-03-13T12:44:56;99473.16;;;16.16;33.82
12799;BME280;19250;42.646;26.980;2023-03-13T12:47:30;99483.56;;;16.34;34.24
12799;BME280;19250;42.646;26.980;2023-03-13T12:50:18;99479.88;;;17.08;33.37
12799;BME280;19250;42.646;26.980;2023-03-13T12:53:14;99483.56;;;16.49;34.30
12799;BME280;19250;42.646;26.980;2023-03-13T12:55:57;99484.88;;;14.94;37.66
12799;BME280;19250;42.646;26.980;2023-03-13T12:58:40;99476.75;;;15.41;37.32
12799;BME280;19250;42.646;26.980;2023-03-13T13:01:15;99483.53;;;14.51;39.37
12799;BME280;19250;42.646;26.980;2023-03-13T13:03:51;99486.53;;;15.34;37.72
12799;BME280;19250;42.646;26.980;2023-03-13T13:06:19;99472.41;;;15.85;36.46